Time;durP1;ratioP1;P1;durP2;ratioP2;P2;SDS_P1;SDS_P2;PMS_P1;PMS_P2;Temp;Humidity;BMP_temperature;BMP_pressure;BME280_temperature;BME280_humidity;BME280_pressure;Samples;Min_cycle;Max_cycle;Signal;HPM_P1;HPM_P2
2021/12/28 00:00:56;;;;;;;0.30;0.20;;;5.90;99.90;;;;;;4917363;29;20857;-82
2021/12/28 00:03:22;;;;;;;0.30;0.20;;;5.80;99.90;;;;;;4918279;29;20483;-88
2021/12/28 00:05:49;;;;;;;0.30;0.27;;;5.80;99.90;;;;;;4918033;29;20487;-88
2021/12/28 00:08:19;;;;;;;0.30;0.20;;;5.80;99.90;;;;;;4918372;29;20447;-88
2021/12/28 00:10:47;;;;;;;0.30;0.20;;;5.90;99.90;;;;;;4918313;29;20456;-88
2021/12/28 00:13:15;;;;;;;0.30;0.20;;;5.90;99.90;;;;;;4918229;29;20480;-88
2021/12/28 00:16:00;;;;;;;0.30;0.20;;;5.90;99.90;;;;;;4918181;29;20500;-88
2021/12/28 00:18:27;;;;;;;0.30;0.30;;;5.90;99.90;;;;;;4917913;29;20440;-82
2021/12/28 00:20:57;;;;;;;0.30;0.20;;;5.90;99.90;;;;;;4916986;29;20813;-82
2021/12/28 00:23:28;;;;;;;0.30;0.20;;;5.90;99.90;;;;;;4917176;29;20594;-84
2021/12/28 00:25:56;;;;;;;0.30;0.20;;;5.90;99.90;;;;;;4917469;29;20476;-85
2021/12/28 00:28:23;;;;;;;0.30;0.20;;;5.90;99.90;;;;;;4917357;29;20471;-85
2021/12/28 00:30:51;;;;;;;0.30;0.20;;;5.90;99.90;;;;;;4917688;29;20467;-84
2021/12/28 00:33:19;;;;;;;0.30;0.20;;;5.90;99.90;;;;;;4917294;29;20995;-84
2021/12/28 00:35:46;;;;;;;0.30;0.30;;;5.90;99.90;;;;;;4918650;29;20452;-89
2021/12/28 00:38:18;;;;;;;0.30;0.20;;;6.00;99.90;;;;;;4929458;29;20436;-88
2021/12/28 00:40:45;;;;;;;0.30;0.20;;;6.00;99.90;;;;;;4936647;29;20448;-88
2021/12/28 00:43:13;;;;;;;0.30;0.30;;;6.00;99.90;;;;;;4919207;29;20483;-89
2021/12/28 00:45:40;;;;;;;0.30;0.20;;;6.00;99.90;;;;;;4917908;29;20435;-88
2021/12/28 00:48:07;;;;;;;0.30;0.20;;;5.90;99.90;;;;;;4918291;29;20448;-88
2021/12/28 00:50:34;;;;;;;0.30;0.20;;;6.00;99.90;;;;;;4917924;29;20452;-88
2021/12/28 00:53:01;;;;;;;0.30;0.30;;;6.00;99.90;;;;;;4917219;29;20468;-88
2021/12/28 00:55:28;;;;;;;0.30;0.20;;;6.10;99.90;;;;;;4917372;29;20452;-85
2021/12/28 00:57:55;;;;;;;0.30;0.20;;;6.10;99.90;;;;;;4916823;29;20493;-84
2021/12/28 01:00:26;;;;;;;0.30;0.30;;;6.20;99.90;;;;;;4919376;29;20460;-84
2021/12/28 01:02:54;;;;;;;0.30;0.20;;;6.20;99.90;;;;;;4920498;29;20475;-84
2021/12/28 01:05:22;;;;;;;0.30;0.30;;;6.20;99.90;;;;;;4920807;29;20463;-85
2021/12/28 01:07:49;;;;;;;0.30;0.20;;;6.30;99.90;;;;;;4882834;29;20966;-84
2021/12/28 01:10:19;;;;;;;0.30;0.20;;;6.20;99.90;;;;;;4883154;29;20457;-85
2021/12/28 01:12:45;;;;;;;0.30;0.20;;;6.20;99.90;;;;;;4882988;29;20480;-85
2021/12/28 01:15:14;;;;;;;0.30;0.20;;;6.20;99.90;;;;;;4883148;29;20472;-88
2021/12/28 01:17:42;;;;;;;0.30;0.20;;;6.10;99.90;;;;;;4883342;29;20832;-88
2021/12/28 01:20:11;;;;;;;0.30;0.20;;;6.00;99.90;;;;;;4883452;29;20453;-88
2021/12/28 01:22:38;;;;;;;0.30;0.30;;;6.00;99.90;;;;;;4883285;29;20473;-88
2021/12/28 01:25:07;;;;;;;0.30;0.30;;;6.00;99.90;;;;;;4883297;29;20465;-88
2021/12/28 01:27:34;;;;;;;0.30;0.20;;;6.00;99.90;;;;;;4883289;29;20960;-88
2021/12/28 01:30:01;;;;;;;0.30;0.23;;;6.00;99.90;;;;;;4883399;29;20461;-85
2021/12/28 01:32:28;;;;;;;0.30;0.30;;;6.00;99.90;;;;;;4882596;29;20481;-84
2021/12/28 01:34:56;;;;;;;0.30;0.20;;;6.00;99.90;;;;;;4882711;29;20434;-84
2021/12/28 01:37:23;;;;;;;0.30;0.20;;;6.00;99.90;;;;;;4882283;29;20497;-84
2021/12/28 01:39:49;;;;;;;0.30;0.20;;;6.00;99.90;;;;;;4882578;29;20458;-85
2021/12/28 01:42:16;;;;;;;0.30;0.20;;;6.10;99.90;;;;;;4882269;29;20466;-85
2021/12/28 01:44:43;;;;;;;0.30;0.20;;;6.00;99.90;;;;;;4882503;29;20827;-85
2021/12/28 01:47:12;;;;;;;0.30;0.30;;;6.00;99.90;;;;;;4882239;29;20962;-85
2021/12/28 01:49:39;;;;;;;0.30;0.20;;;5.90;99.90;;;;;;4882700;29;20545;-84
2021/12/28 01:52:08;;;;;;;0.30;0.20;;;5.90;99.90;;;;;;4882043;29;20466;-84
2021/12/28 01:54:35;;;;;;;0.30;0.20;;;5.90;99.90;;;;;;4882333;29;20460;-85
2021/12/28 01:57:02;;;;;;;0.30;0.30;;;5.90;99.90;;;;;;4882196;29;20493;-85
2021/12/28 01:59:29;;;;;;;0.30;0.20;;;5.90;99.90;;;;;;4882582;29;20450;-85
2021/12/28 02:01:56;;;;;;;0.30;0.30;;;5.90;99.90;;;;;;4882156;29;20474;-83
2021/12/28 02:04:25;;;;;;;0.30;0.20;;;5.90;99.90;;;;;;4882084;29;20541;-82
2021/12/28 02:06:54;;;;;;;0.30;0.20;;;5.90;99.90;;;;;;4904924;29;21034;-83
2021/12/28 02:09:23;;;;;;;0.30;0.30;;;5.90;99.90;;;;;;4919620;29;20482;-82
2021/12/28 02:11:49;;;;;;;0.30;0.20;;;5.80;99.90;;;;;;4918807;29;20483;-83
2021/12/28 02:14:16;;;;;;;0.30;0.30;;;5.80;99.90;;;;;;4919341;29;20452;-83
2021/12/28 02:16:45;;;;;;;0.30;0.20;;;5.80;99.90;;;;;;4919242;29;20480;-85
2021/12/28 02:19:13;;;;;;;0.30;0.30;;;5.80;99.90;;;;;;4919445;29;20456;-85
2021/12/28 02:21:42;;;;;;;0.30;0.20;;;5.90;99.90;;;;;;4919156;29;20460;-84
2021/12/28 02:24:10;;;;;;;0.30;0.30;;;6.00;99.90;;;;;;4919377;29;20440;-88
2021/12/28 02:26:37;;;;;;;0.30;0.30;;;5.90;99.90;;;;;;4920804;29;20464;-89
2021/12/28 02:29:04;;;;;;;0.30;0.20;;;5.90;99.90;;;;;;4919858;29;20814;-85
2021/12/28 02:31:31;;;;;;;0.30;0.20;;;6.00;99.90;;;;;;4918930;29;21028;-84
2021/12/28 02:33:58;;;;;;;0.30;0.20;;;6.10;99.90;;;;;;4919329;29;20455;-84
2021/12/28 02:36:26;;;;;;;0.30;0.30;;;6.00;99.90;;;;;;4919513;29;20463;-88
2021/12/28 02:38:54;;;;;;;0.30;0.20;;;6.00;99.90;;;;;;4919774;29;20531;-88
2021/12/28 02:41:21;;;;;;;0.30;0.20;;;6.00;99.90;;;;;;4919812;29;20459;-88
2021/12/28 02:43:48;;;;;;;0.30;0.20;;;6.10;99.90;;;;;;4919733;29;20468;-88
2021/12/28 02:46:16;;;;;;;0.30;0.20;;;6.00;99.90;;;;;;4919640;29;20467;-88
2021/12/28 02:48:43;;;;;;;0.30;0.20;;;6.00;99.90;;;;;;4919744;29;20814;-88
2021/12/28 02:51:12;;;;;;;0.30;0.20;;;6.00;99.90;;;;;;4919019;29;20440;-85
2021/12/28 02:53:39;;;;;;;0.30;0.20;;;6.00;99.90;;;;;;4918611;29;20983;-85
2021/12/28 02:56:08;;;;;;;0.30;0.20;;;6.00;99.90;;;;;;4918853;29;20455;-85
2021/12/28 02:58:37;;;;;;;0.30;0.30;;;6.00;99.90;;;;;;4918682;29;20521;-84
2021/12/28 03:01:08;;;;;;;1.37;1.23;;;6.00;99.90;;;;;;4918752;29;20451;-85
2021/12/28 03:03:37;;;;;;;1.23;0.93;;;6.10;99.90;;;;;;4918545;29;20464;-89
2021/12/28 03:06:05;;;;;;;0.30;0.20;;;6.10;99.90;;;;;;4918874;29;20506;-88
2021/12/28 03:08:33;;;;;;;0.30;0.30;;;6.20;99.90;;;;;;4918970;29;20460;-89
2021/12/28 03:11:02;;;;;;;0.30;0.27;;;6.10;99.90;;;;;;4919283;29;20456;-89
2021/12/28 03:13:33;;;;;;;0.43;0.43;;;6.20;99.90;;;;;;4918771;29;20456;-89
2021/12/28 03:16:00;;;;;;;0.30;0.30;;;6.20;99.90;;;;;;4918817;29;20467;-83
2021/12/28 03:18:27;;;;;;;0.30;0.20;;;6.20;99.90;;;;;;4918296;29;20496;-83
2021/12/28 03:20:54;;;;;;;0.33;0.30;;;6.10;99.90;;;;;;4918002;29;20448;-82
2021/12/28 03:23:24;;;;;;;0.30;0.30;;;6.20;99.90;;;;;;4917072;29;20475;-83
2021/12/28 03:25:51;;;;;;;0.73;0.73;;;6.20;99.90;;;;;;4918097;29;20456;-82
2021/12/28 03:28:20;;;;;;;0.30;0.20;;;6.20;99.90;;;;;;4918375;29;20456;-85
2021/12/28 03:30:49;;;;;;;0.30;0.30;;;6.20;99.90;;;;;;4919013;29;20467;-85
2021/12/28 03:33:16;;;;;;;0.30;0.30;;;6.30;99.90;;;;;;4918173;29;20519;-85
2021/12/28 03:35:43;;;;;;;0.30;0.20;;;6.30;99.90;;;;;;4918088;29;20463;-85
2021/12/28 03:38:09;;;;;;;0.30;0.30;;;6.40;99.90;;;;;;4917678;29;21034;-85
2021/12/28 03:40:37;;;;;;;0.30;0.20;;;6.40;99.90;;;;;;4917992;29;20500;-88
2021/12/28 03:43:04;;;;;;;0.30;0.20;;;6.40;99.90;;;;;;4918538;29;20484;-88
2021/12/28 03:45:31;;;;;;;0.30;0.20;;;6.50;99.90;;;;;;4918628;29;20455;-89
2021/12/28 03:48:00;;;;;;;0.30;0.20;;;6.50;99.90;;;;;;4918553;29;20459;-89
2021/12/28 03:50:26;;;;;;;0.30;0.20;;;6.40;99.90;;;;;;4918403;29;20955;-89
2021/12/28 03:52:54;;;;;;;0.30;0.30;;;6.40;99.90;;;;;;4918140;29;20468;-89
2021/12/28 03:55:22;;;;;;;0.30;0.20;;;6.40;99.90;;;;;;4918187;29;20455;-89
2021/12/28 03:57:49;;;;;;;0.30;0.20;;;6.50;99.90;;;;;;4918461;29;20490;-89
2021/12/28 04:00:19;;;;;;;0.30;0.20;;;6.50;99.90;;;;;;4918234;29;20460;-89
2021/12/28 04:02:46;;;;;;;0.30;0.20;;;6.50;99.90;;;;;;4917718;29;20980;-85
2021/12/28 04:05:16;;;;;;;0.30;0.20;;;6.50;99.90;;;;;;4917725;29;20458;-85
2021/12/28 04:07:43;;;;;;;0.30;0.30;;;6.50;99.90;;;;;;4917091;29;20491;-85
2021/12/28 04:10:11;;;;;;;0.30;0.30;;;6.50;99.90;;;;;;4917590;29;20818;-84
2021/12/28 04:12:39;;;;;;;1.07;1.07;;;6.50;99.90;;;;;;4917406;29;20547;-83
2021/12/28 04:15:07;;;;;;;0.30;0.20;;;6.50;99.90;;;;;;4917452;29;20467;-83
2021/12/28 04:17:37;;;;;;;0.70;0.67;;;6.50;99.90;;;;;;4917004;29;20991;-83
2021/12/28 04:20:05;;;;;;;0.30;0.20;;;6.50;99.90;;;;;;4917612;29;20448;-82
2021/12/28 04:22:33;;;;;;;0.30;0.20;;;6.60;99.90;;;;;;4917674;29;20491;-85
2021/12/28 04:25:00;;;;;;;0.30;0.20;;;6.60;99.90;;;;;;4917135;29;20970;-85
2021/12/28 04:27:27;;;;;;;0.30;0.20;;;6.60;99.90;;;;;;4917374;29;20455;-85
2021/12/28 04:29:54;;;;;;;0.30;0.20;;;6.60;99.90;;;;;;4918441;29;20444;-85
2021/12/28 04:32:20;;;;;;;0.30;0.30;;;6.60;99.90;;;;;;4917558;29;21007;-85
2021/12/28 04:34:47;;;;;;;0.30;0.20;;;6.70;99.90;;;;;;4916833;29;20440;-85
2021/12/28 04:37:14;;;;;;;0.30;0.20;;;6.70;99.90;;;;;;4917132;29;20486;-83
2021/12/28 04:39:42;;;;;;;0.30;0.20;;;6.80;99.90;;;;;;4917218;29;20452;-88
2021/12/28 04:42:09;;;;;;;0.30;0.20;;;6.90;99.90;;;;;;4917682;29;20472;-88
2021/12/28 04:44:36;;;;;;;0.30;0.20;;;6.90;99.90;;;;;;4917448;29;20433;-88
2021/12/28 04:47:03;;;;;;;0.30;0.20;;;6.90;99.90;;;;;;4917597;29;20448;-86
2021/12/28 04:49:30;;;;;;;0.30;0.20;;;6.90;99.90;;;;;;4916949;29;20452;-84
2021/12/28 04:51:58;;;;;;;0.30;0.30;;;6.90;99.90;;;;;;4917791;29;20472;-85
2021/12/28 04:54:25;;;;;;;0.30;0.20;;;7.00;99.90;;;;;;4917087;29;20558;-85
2021/12/28 04:56:53;;;;;;;0.30;0.30;;;7.00;99.90;;;;;;4916718;29;20964;-85
2021/12/28 04:59:20;;;;;;;0.30;0.20;;;7.00;99.90;;;;;;4916832;29;20483;-85
2021/12/28 05:01:47;;;;;;;0.30;0.20;;;7.00;99.90;;;;;;4917043;29;20484;-85
2021/12/28 05:04:14;;;;;;;0.30;0.20;;;6.90;99.90;;;;;;4916767;29;20801;-85
2021/12/28 05:06:41;;;;;;;0.30;0.20;;;6.90;99.90;;;;;;4916608;29;20479;-85
2021/12/28 05:09:11;;;;;;;0.30;0.20;;;6.90;99.90;;;;;;4917118;29;20444;-85
2021/12/28 05:11:39;;;;;;;0.30;0.20;;;6.90;99.90;;;;;;4916936;29;20464;-85
2021/12/28 05:14:08;;;;;;;0.30;0.27;;;6.90;99.90;;;;;;4918378;29;20455;-85
2021/12/28 05:16:35;;;;;;;0.40;0.40;;;6.90;99.90;;;;;;4920386;29;21012;-85
2021/12/28 05:19:06;;;;;;;0.57;0.47;;;6.90;99.90;;;;;;4917825;29;20499;-83
2021/12/28 05:21:33;;;;;;;0.30;0.20;;;7.00;99.90;;;;;;4916748;29;20479;-83
2021/12/28 05:24:01;;;;;;;0.30;0.23;;;7.00;99.90;;;;;;4917267;29;20456;-89
2021/12/28 05:26:27;;;;;;;0.30;0.30;;;7.00;99.90;;;;;;4918505;29;20456;-88
2021/12/28 05:28:54;;;;;;;0.30;0.30;;;6.90;99.90;;;;;;4917687;29;20448;-88
2021/12/28 05:31:25;;;;;;;0.50;0.40;;;7.00;99.90;;;;;;4917475;29;20810;-89
2021/12/28 05:33:52;;;;;;;0.30;0.20;;;6.90;99.90;;;;;;4917702;29;20466;-89
2021/12/28 05:36:19;;;;;;;0.30;0.20;;;6.90;99.90;;;;;;4917491;29;20428;-89
2021/12/28 05:38:46;;;;;;;0.30;0.30;;;7.00;99.90;;;;;;4917430;29;20490;-89
2021/12/28 05:41:13;;;;;;;0.30;0.20;;;6.90;99.90;;;;;;4917488;29;20540;-88
2021/12/28 05:43:39;;;;;;;0.30;0.20;;;6.90;99.90;;;;;;4917300;29;20444;-88
2021/12/28 05:46:06;;;;;;;0.30;0.20;;;6.90;99.90;;;;;;4918383;29;20444;-84
2021/12/28 05:48:34;;;;;;;0.30;0.20;;;6.90;99.90;;;;;;4920093;29;20456;-86
2021/12/28 05:51:01;;;;;;;0.30;0.20;;;6.90;99.90;;;;;;4920041;29;20456;-87
2021/12/28 05:53:28;;;;;;;0.30;0.20;;;6.90;99.90;;;;;;4920295;29;20484;-87
2021/12/28 05:55:55;;;;;;;0.30;0.20;;;6.90;99.90;;;;;;4920005;29;20966;-87
2021/12/28 05:58:21;;;;;;;0.30;0.20;;;7.00;99.90;;;;;;4919962;29;21034;-88
2021/12/28 06:00:48;;;;;;;0.30;0.20;;;6.90;99.90;;;;;;4920558;29;20447;-88
2021/12/28 06:03:15;;;;;;;0.30;0.20;;;6.90;99.90;;;;;;4920253;29;20488;-88
2021/12/28 06:05:43;;;;;;;0.30;0.20;;;6.80;99.90;;;;;;4919414;29;20440;-83
2021/12/28 06:08:10;;;;;;;0.30;0.30;;;6.90;99.90;;;;;;4919697;29;20464;-82
2021/12/28 06:10:37;;;;;;;0.30;0.20;;;6.90;99.90;;;;;;4919425;29;20783;-82
2021/12/28 06:13:03;;;;;;;0.30;0.30;;;6.90;99.90;;;;;;4919230;29;20851;-82
2021/12/28 06:15:30;;;;;;;0.30;0.20;;;6.90;99.90;;;;;;4919567;29;20452;-83
2021/12/28 06:17:57;;;;;;;0.30;0.30;;;6.80;99.90;;;;;;4919568;29;21106;-87
2021/12/28 06:20:24;;;;;;;0.30;0.20;;;6.80;99.90;;;;;;4919754;29;20448;-87
2021/12/28 06:22:52;;;;;;;0.30;0.20;;;6.80;99.90;;;;;;4919900;29;20495;-87
2021/12/28 06:25:18;;;;;;;0.30;0.30;;;6.80;99.90;;;;;;4920078;29;20452;-87
2021/12/28 06:27:45;;;;;;;0.30;0.30;;;6.70;99.90;;;;;;4920092;29;20460;-88
2021/12/28 06:30:13;;;;;;;0.30;0.20;;;6.70;99.90;;;;;;4919845;29;20464;-87
2021/12/28 06:32:40;;;;;;;0.30;0.20;;;6.70;99.90;;;;;;4919702;29;20475;-88
2021/12/28 06:35:09;;;;;;;0.47;0.47;;;6.70;99.90;;;;;;4919929;29;20538;-87
2021/12/28 06:37:35;;;;;;;0.30;0.20;;;6.70;99.90;;;;;;4919701;29;20460;-88
2021/12/28 06:40:06;;;;;;;0.30;0.20;;;6.60;99.90;;;;;;4919534;29;20452;-88
2021/12/28 06:42:33;;;;;;;0.30;0.30;;;6.60;99.90;;;;;;4919678;29;21003;-90
2021/12/28 06:45:00;;;;;;;0.30;0.20;;;6.60;99.90;;;;;;4920015;29;20460;-90
2021/12/28 06:47:27;;;;;;;0.30;0.20;;;6.60;99.90;;;;;;4920403;29;20479;-90
2021/12/28 06:49:53;;;;;;;0.30;0.20;;;6.60;99.90;;;;;;4919829;29;20848;-87
2021/12/28 06:52:20;;;;;;;0.30;0.20;;;6.70;99.90;;;;;;4919235;29;20472;-88
2021/12/28 06:54:47;;;;;;;0.30;0.30;;;6.70;99.90;;;;;;4919335;29;20796;-88
2021/12/28 06:57:15;;;;;;;0.30;0.20;;;6.70;99.90;;;;;;4919267;29;20467;-88
2021/12/28 06:59:45;;;;;;;0.30;0.20;;;6.70;99.90;;;;;;4919078;29;20488;-88
2021/12/28 07:02:13;;;;;;;1.50;1.50;;;6.70;99.90;;;;;;4919095;29;20476;-88
2021/12/28 07:04:39;;;;;;;0.30;0.20;;;6.80;99.90;;;;;;4919234;29;20467;-88
2021/12/28 07:07:07;;;;;;;0.30;0.20;;;6.80;99.90;;;;;;4922473;29;20484;-88
2021/12/28 07:09:35;;;;;;;0.30;0.30;;;6.80;99.90;;;;;;4918879;29;20991;-88
2021/12/28 07:12:01;;;;;;;0.30;0.30;;;6.90;99.90;;;;;;4919230;29;20852;-88
2021/12/28 07:14:30;;;;;;;0.30;0.20;;;6.90;99.90;;;;;;4919106;29;20471;-88
2021/12/28 07:16:57;;;;;;;0.30;0.30;;;6.90;99.90;;;;;;4919034;29;20436;-88
2021/12/28 07:19:24;;;;;;;0.30;0.20;;;6.90;99.90;;;;;;4918873;29;20484;-88
2021/12/28 07:21:51;;;;;;;0.30;0.20;;;7.00;99.90;;;;;;4918709;29;20480;-88
2021/12/28 07:24:18;;;;;;;0.30;0.30;;;7.00;99.90;;;;;;4918621;29;20444;-88
2021/12/28 07:26:46;;;;;;;0.30;0.30;;;7.00;99.90;;;;;;4918653;29;20452;-88
2021/12/28 07:29:13;;;;;;;0.30;0.30;;;7.00;99.90;;;;;;4918739;29;20448;-87
2021/12/28 07:31:44;;;;;;;0.30;0.20;;;7.00;99.90;;;;;;4918037;29;20456;-84
2021/12/28 07:34:11;;;;;;;0.30;0.20;;;6.90;99.90;;;;;;4918176;29;20436;-84
2021/12/28 07:36:38;;;;;;;0.30;0.20;;;6.90;99.90;;;;;;4918068;29;20478;-84
2021/12/28 07:39:06;;;;;;;0.30;0.20;;;6.80;99.90;;;;;;4917766;29;21042;-87
2021/12/28 07:41:33;;;;;;;0.30;0.20;;;6.80;99.90;;;;;;4918115;29;20544;-87
2021/12/28 07:44:00;;;;;;;0.30;0.20;;;6.90;99.90;;;;;;4918386;29;20455;-87
2021/12/28 07:46:27;;;;;;;0.30;0.30;;;7.00;99.90;;;;;;4918309;29;20483;-87
2021/12/28 07:48:55;;;;;;;0.30;0.20;;;7.00;99.90;;;;;;4918324;29;20452;-88
2021/12/28 07:51:22;;;;;;;0.30;0.30;;;7.10;99.90;;;;;;4918110;29;20826;-87
2021/12/28 07:53:49;;;;;;;0.30;0.20;;;7.10;99.90;;;;;;4917858;29;20971;-87
2021/12/28 07:56:16;;;;;;;0.30;0.30;;;7.20;99.90;;;;;;4918165;29;20452;-88
2021/12/28 07:58:43;;;;;;;0.30;0.20;;;7.20;99.90;;;;;;4918212;29;20492;-89
2021/12/28 08:01:10;;;;;;;0.30;0.20;;;7.20;99.90;;;;;;4918142;29;20459;-88
2021/12/28 08:03:37;;;;;;;0.30;0.20;;;7.20;99.90;;;;;;4918825;29;20456;-88
2021/12/28 08:06:05;;;;;;;0.30;0.30;;;7.30;99.90;;;;;;4917937;29;20492;-89
2021/12/28 08:08:32;;;;;;;0.30;0.20;;;7.30;99.90;;;;;;4917972;29;20928;-89
2021/12/28 08:10:59;;;;;;;0.30;0.20;;;7.40;99.90;;;;;;4918156;29;20464;-89
2021/12/28 08:13:25;;;;;;;0.40;0.30;;;7.40;99.90;;;;;;4918198;29;20461;-90
2021/12/28 08:15:52;;;;;;;0.40;0.30;;;7.50;99.90;;;;;;4918351;29;20467;-90
2021/12/28 08:18:19;;;;;;;0.30;0.20;;;7.50;99.90;;;;;;4917908;29;20456;-89
2021/12/28 08:20:46;;;;;;;0.43;0.37;;;7.50;99.90;;;;;;4917312;29;20931;-83
2021/12/28 08:23:14;;;;;;;0.30;0.20;;;7.50;99.90;;;;;;4917366;29;20482;-83
2021/12/28 08:25:41;;;;;;;0.30;0.20;;;7.60;99.90;;;;;;4917397;29;20417;-83
2021/12/28 08:28:08;;;;;;;0.30;0.20;;;7.60;99.90;;;;;;4917149;29;20425;-83
2021/12/28 08:30:36;;;;;;;0.30;0.20;;;7.60;99.90;;;;;;4917814;29;20444;-88
2021/12/28 08:33:07;;;;;;;0.30;0.20;;;7.70;99.90;;;;;;4917695;29;20476;-88
2021/12/28 08:35:34;;;;;;;0.30;0.20;;;7.70;99.90;;;;;;4917826;29;20437;-88
2021/12/28 08:38:01;;;;;;;0.30;0.20;;;7.80;99.90;;;;;;4917866;29;20447;-89
2021/12/28 08:40:29;;;;;;;0.30;0.20;;;7.80;99.90;;;;;;4917955;29;20480;-89
2021/12/28 08:42:56;;;;;;;0.30;0.20;;;7.80;99.90;;;;;;4917893;29;20476;-90
2021/12/28 08:45:23;;;;;;;0.30;0.20;;;7.80;99.90;;;;;;4918071;29;20463;-90
2021/12/28 08:47:51;;;;;;;0.30;0.23;;;7.90;99.90;;;;;;4918213;29;20456;-90
2021/12/28 08:50:20;;;;;;;0.30;0.30;;;8.00;99.90;;;;;;4917847;29;20447;-89
2021/12/28 08:52:47;;;;;;;0.30;0.20;;;8.10;99.90;;;;;;4917677;29;20460;-89
2021/12/28 08:55:14;;;;;;;0.30;0.20;;;8.20;99.90;;;;;;4918558;29;20468;-90
2021/12/28 08:57:42;;;;;;;0.30;0.20;;;8.20;99.90;;;;;;4917815;29;20452;-89
2021/12/28 09:00:12;;;;;;;0.30;0.30;;;8.30;99.90;;;;;;4917480;29;20488;-88
2021/12/28 09:02:39;;;;;;;0.30;0.20;;;8.40;99.90;;;;;;4917115;29;20472;-84
2021/12/28 09:05:06;;;;;;;0.30;0.30;;;8.40;99.90;;;;;;4916664;29;20457;-83
2021/12/28 09:07:33;;;;;;;0.30;0.20;;;8.40;99.90;;;;;;4916497;29;20843;-83
2021/12/28 09:10:00;;;;;;;0.30;0.20;;;8.40;99.90;;;;;;4916659;29;20448;-83
2021/12/28 09:12:28;;;;;;;0.40;0.30;;;8.40;99.90;;;;;;4917032;29;20865;-86
2021/12/28 09:14:56;;;;;;;0.30;0.20;;;8.50;99.90;;;;;;4917245;29;20456;-87
2021/12/28 09:17:23;;;;;;;0.30;0.20;;;8.60;99.90;;;;;;4917383;29;20460;-87
2021/12/28 09:19:50;;;;;;;0.30;0.20;;;8.80;99.90;;;;;;4916792;29;20498;-88
2021/12/28 09:22:17;;;;;;;0.30;0.30;;;9.10;99.90;;;;;;4920480;29;20820;-86
2021/12/28 09:24:43;;;;;;;0.30;0.20;;;9.10;99.90;;;;;;4920272;29;20443;-85
2021/12/28 09:27:11;;;;;;;0.30;0.20;;;9.30;99.90;;;;;;4920163;29;20448;-85
2021/12/28 09:29:42;;;;;;;0.30;0.20;;;9.30;99.90;;;;;;4920547;29;20444;-86
2021/12/28 09:32:11;;;;;;;0.30;0.20;;;9.30;99.90;;;;;;4920420;29;20523;-86
2021/12/28 09:34:38;;;;;;;0.30;0.20;;;9.20;99.90;;;;;;4920053;29;20967;-86
2021/12/28 09:37:05;;;;;;;0.30;0.20;;;9.20;99.90;;;;;;4920173;29;20519;-86
2021/12/28 09:39:31;;;;;;;0.30;0.20;;;9.10;99.90;;;;;;4920255;29;20491;-85
2021/12/28 09:42:00;;;;;;;0.30;0.20;;;9.10;99.90;;;;;;4922723;29;20490;-86
2021/12/28 09:44:29;;;;;;;0.30;0.20;;;9.20;99.90;;;;;;4919936;29;20928;-86
2021/12/28 09:46:55;;;;;;;0.30;0.20;;;9.40;99.90;;;;;;4920194;29;20467;-86
2021/12/28 09:49:25;;;;;;;0.30;0.20;;;9.50;99.90;;;;;;4920195;29;20456;-86
2021/12/28 09:51:52;;;;;;;0.30;0.20;;;9.50;99.90;;;;;;4921727;29;20482;-86
2021/12/28 09:54:19;;;;;;;0.30;0.20;;;9.40;99.90;;;;;;4925490;29;20963;-86
2021/12/28 09:56:46;;;;;;;0.30;0.20;;;9.40;99.90;;;;;;4921566;29;20439;-86
2021/12/28 09:59:13;;;;;;;0.30;0.20;;;9.40;99.90;;;;;;4919929;29;20487;-86
2021/12/28 10:01:40;;;;;;;0.30;0.20;;;9.50;99.90;;;;;;4919952;29;20472;-87
2021/12/28 10:04:06;;;;;;;0.30;0.20;;;9.60;99.90;;;;;;4919637;29;20451;-86
2021/12/28 10:06:34;;;;;;;0.30;0.30;;;9.60;99.90;;;;;;4919754;29;20476;-88
2021/12/28 10:09:06;;;;;;;0.30;0.20;;;9.60;99.90;;;;;;4920162;29;20833;-88
2021/12/28 10:11:35;;;;;;;0.40;0.40;;;9.60;99.90;;;;;;4920213;29;20476;-87
2021/12/28 10:14:13;;;;;;;0.30;0.20;;;9.70;99.90;;;;;;4920236;29;20974;-87
2021/12/28 10:16:48;;;;;;;0.30;0.20;;;9.60;99.90;;;;;;4920200;29;20940;-88
2021/12/28 10:19:40;;;;;;;0.30;0.20;;;9.60;99.90;;;;;;4919839;29;20472;-84
2021/12/28 10:22:22;;;;;;;0.30;0.20;;;9.60;99.90;;;;;;4918475;29;20488;-84
2021/12/28 10:24:51;;;;;;;0.30;0.20;;;9.60;99.90;;;;;;4919104;29;20932;-84
2021/12/28 10:27:20;;;;;;;0.40;0.30;;;9.60;99.90;;;;;;4919521;29;20467;-83
2021/12/28 10:29:47;;;;;;;0.30;0.20;;;9.80;99.90;;;;;;4919044;29;20811;-83
2021/12/28 10:32:20;;;;;;;0.30;0.20;;;10.00;99.90;;;;;;4918854;29;20476;-84
2021/12/28 10:34:48;;;;;;;0.30;0.30;;;10.10;99.90;;;;;;4918938;29;20440;-83
2021/12/28 10:37:17;;;;;;;0.30;0.30;;;10.10;99.90;;;;;;4919211;29;20452;-83
2021/12/28 10:39:47;;;;;;;0.30;0.30;;;10.00;99.90;;;;;;4918831;29;20480;-84
2021/12/28 10:42:47;;;;;;;0.30;0.20;;;10.00;99.90;;;;;;4919233;29;20559;-84
2021/12/28 10:45:16;;;;;;;0.30;0.20;;;10.00;99.90;;;;;;4917081;29;20447;-84
2021/12/28 10:47:43;;;;;;;0.40;0.40;;;10.00;99.90;;;;;;4919060;29;20436;-84
2021/12/28 10:50:34;;;;;;;0.30;0.20;;;10.00;99.90;;;;;;4919636;29;20861;-83
2021/12/28 10:53:07;;;;;;;0.30;0.30;;;10.00;99.90;;;;;;4918927;29;20563;-83
2021/12/28 10:55:36;;;;;;;0.30;0.20;;;9.90;99.90;;;;;;4918851;29;20463;-84
2021/12/28 10:58:03;;;;;;;0.30;0.30;;;10.00;99.90;;;;;;4918838;29;20436;-84
2021/12/28 11:00:35;;;;;;;0.30;0.30;;;10.10;99.90;;;;;;4918442;29;20998;-84
2021/12/28 11:03:26;;;;;;;0.30;0.30;;;10.10;99.90;;;;;;4919107;29;20484;-88
2021/12/28 11:05:56;;;;;;;0.30;0.20;;;10.10;99.90;;;;;;4919482;29;20480;-88
2021/12/28 11:08:25;;;;;;;0.30;0.20;;;10.20;99.90;;;;;;4919123;29;20452;-88
2021/12/28 11:10:55;;;;;;;0.30;0.20;;;10.30;99.90;;;;;;4919023;29;20444;-87
2021/12/28 11:13:23;;;;;;;0.30;0.20;;;10.30;99.90;;;;;;4918393;29;20984;-87
2021/12/28 11:15:50;;;;;;;0.30;0.20;;;10.30;99.90;;;;;;4918533;29;20423;-87
2021/12/28 11:18:19;;;;;;;0.30;0.20;;;10.30;99.90;;;;;;4918909;29;20451;-87
2021/12/28 11:20:47;;;;;;;0.30;0.20;;;10.20;99.90;;;;;;4918925;29;20464;-87
2021/12/28 11:23:15;;;;;;;0.30;0.20;;;10.20;99.90;;;;;;4918600;29;20475;-87
2021/12/28 11:25:42;;;;;;;0.30;0.30;;;10.20;99.90;;;;;;4919316;29;20921;-90
2021/12/28 11:28:19;;;;;;;0.30;0.30;;;10.20;99.90;;;;;;4919454;29;20915;-89
2021/12/28 11:31:04;;;;;;;0.30;0.30;;;10.20;99.90;;;;;;4919014;29;20420;-90
2021/12/28 11:33:57;;;;;;;0.30;0.20;;;10.30;99.90;;;;;;4918921;29;20452;-90
2021/12/28 11:36:26;;;;;;;0.30;0.20;;;10.40;99.90;;;;;;4914005;29;20807;-90
2021/12/28 11:38:55;;;;;;;0.30;0.20;;;10.50;99.90;;;;;;4919816;29;20432;-88
2021/12/28 11:41:22;;;;;;;0.30;0.20;;;10.50;99.90;;;;;;4918701;29;20465;-89
2021/12/28 11:43:50;;;;;;;0.30;0.30;;;10.50;99.90;;;;;;4918225;29;20441;-90
2021/12/28 11:46:17;;;;;;;0.30;0.30;;;10.40;99.90;;;;;;4918823;29;20439;-90
2021/12/28 11:48:46;;;;;;;0.40;0.30;;;10.40;99.90;;;;;;4918692;29;20425;-90
2021/12/28 11:51:15;;;;;;;0.80;0.27;;;10.30;99.90;;;;;;4918674;29;20445;-90
2021/12/28 11:53:44;;;;;;;0.30;0.20;;;10.30;99.90;;;;;;4918730;29;20448;-90
2021/12/28 11:56:13;;;;;;;0.30;0.20;;;10.20;99.90;;;;;;4918727;29;20444;-89
2021/12/28 11:59:00;;;;;;;0.30;0.20;;;10.10;99.90;;;;;;4918472;29;20427;-89
2021/12/28 12:01:55;;;;;;;0.30;0.20;;;10.10;99.90;;;;;;4918706;29;20476;-89
2021/12/28 12:04:58;;;;;;;0.30;0.30;;;10.00;99.90;;;;;;4914264;29;20456;-90
2021/12/28 12:07:31;;;;;;;2.53;0.40;;;10.00;99.90;;;;;;4918195;29;20496;-90
2021/12/28 12:10:31;;;;;;;0.30;0.30;;;10.00;99.90;;;;;;4918901;29;20443;-90
2021/12/28 12:13:26;;;;;;;0.30;0.20;;;10.00;99.90;;;;;;4918430;29;20479;-90
2021/12/28 12:15:57;;;;;;;0.30;0.20;;;9.90;99.90;;;;;;4919240;29;20436;-83
2021/12/28 12:18:29;;;;;;;0.30;0.20;;;10.00;99.90;;;;;;4918722;29;20428;-82
2021/12/28 12:20:59;;;;;;;0.30;0.20;;;9.90;99.90;;;;;;4918170;29;20495;-88
2021/12/28 12:23:29;;;;;;;0.30;0.20;;;9.90;99.90;;;;;;4917192;29;20459;-83
2021/12/28 12:26:07;;;;;;;0.30;0.30;;;10.00;99.90;;;;;;4917807;29;20869;-83
2021/12/28 12:28:41;;;;;;;0.30;0.20;;;10.10;99.90;;;;;;4917360;29;20436;-83
2021/12/28 12:31:11;;;;;;;0.30;0.20;;;10.10;99.90;;;;;;4917319;29;20417;-83
2021/12/28 12:33:42;;;;;;;0.30;0.30;;;10.10;99.90;;;;;;4917103;29;20461;-88
2021/12/28 12:36:18;;;;;;;0.60;0.50;;;10.10;99.90;;;;;;4917774;29;20796;-88
2021/12/28 12:38:45;;;;;;;0.30;0.30;;;10.20;99.90;;;;;;4917706;29;20443;-88
2021/12/28 12:41:18;;;;;;;0.30;0.30;;;10.20;99.90;;;;;;4917647;29;20835;-88
2021/12/28 12:43:49;;;;;;;0.30;0.20;;;10.20;99.90;;;;;;4917605;29;20453;-87
2021/12/28 12:46:27;;;;;;;0.30;0.30;;;10.20;99.90;;;;;;4917658;29;20440;-92
2021/12/28 12:49:14;;;;;;;0.30;0.20;;;10.20;99.90;;;;;;4917629;29;20420;-88
2021/12/28 12:51:47;;;;;;;0.40;0.30;;;10.20;99.90;;;;;;4916832;29;20997;-84
2021/12/28 12:54:23;;;;;;;0.30;0.30;;;10.20;99.90;;;;;;4917631;29;20452;-84
2021/12/28 12:57:12;;;;;;;0.30;0.20;;;10.20;99.90;;;;;;4920794;29;20452;-84
2021/12/28 13:00:09;;;;;;;0.30;0.27;;;10.20;99.90;;;;;;4921044;29;20417;-84
2021/12/28 13:02:38;;;;;;;0.30;0.20;;;10.30;99.90;;;;;;4920506;29;21004;-84
2021/12/28 13:05:20;;;;;;;0.30;0.30;;;10.30;99.90;;;;;;4920890;29;20543;-85